Time;durP1;ratioP1;P1;durP2;ratioP2;P2;SDS_P1;SDS_P2;PMS_P1;PMS_P2;Temp;Humidity;BMP_temperature;BMP_pressure;BME280_temperature;BME280_humidity;BME280_pressure;Samples;Min_cycle;Max_cycle;Signal;HPM_P1;HPM_P2
2022/01/14 00:03:11;;;;;;;71.07;23.38;;;1.90;99.90;;;;;;12399389;28;20053;-85
2022/01/14 00:09:14;;;;;;;66.60;21.42;;;2.00;99.90;;;;;;12381620;28;20491;-85
2022/01/14 00:15:26;;;;;;;62.63;19.23;;;2.00;99.90;;;;;;12390850;28;20042;-85
2022/01/14 00:21:29;;;;;;;64.30;21.10;;;2.00;99.90;;;;;;12397417;28;20189;-85
2022/01/14 00:33:52;;;;;;;59.42;19.60;;;2.00;99.90;;;;;;12405698;28;20084;-84
2022/01/14 00:39:53;;;;;;;71.22;21.55;;;2.00;99.90;;;;;;12403653;28;20834;-86
2022/01/14 00:45:55;;;;;;;51.65;18.50;;;2.00;99.90;;;;;;12386670;28;20256;-85
2022/01/14 00:51:57;;;;;;;58.78;20.02;;;2.00;99.90;;;;;;12395405;28;20049;-85
2022/01/14 01:04:01;;;;;;;46.15;19.10;;;2.00;99.90;;;;;;12406189;28;20447;-84
2022/01/14 01:10:03;;;;;;;51.35;19.02;;;2.00;99.90;;;;;;12386336;28;20050;-84
2022/01/14 01:16:05;;;;;;;52.60;19.30;;;2.00;99.90;;;;;;12393923;28;20490;-85
2022/01/14 01:22:08;;;;;;;53.70;19.70;;;1.90;99.90;;;;;;12391940;28;20046;-86
2022/01/14 01:28:10;;;;;;;51.28;18.48;;;2.00;99.90;;;;;;12386142;28;20057;-85
2022/01/14 01:34:16;;;;;;;54.78;20.25;;;2.00;99.90;;;;;;12391889;28;20049;-85
2022/01/14 01:40:22;;;;;;;55.85;20.58;;;2.00;99.90;;;;;;12403047;28;20516;-85
2022/01/14 01:46:24;;;;;;;52.08;19.92;;;2.00;99.90;;;;;;12393217;28;20568;-85
2022/01/14 01:52:26;;;;;;;54.40;21.13;;;2.10;99.90;;;;;;12397427;28;20498;-84
2022/01/14 01:58:27;;;;;;;52.25;20.20;;;2.00;99.90;;;;;;12391047;28;20103;-85
2022/01/14 02:04:31;;;;;;;52.17;20.15;;;2.00;99.90;;;;;;12385112;28;20127;-84
2022/01/14 02:10:33;;;;;;;53.93;20.87;;;2.00;99.90;;;;;;12402174;28;20139;-84
2022/01/14 02:17:13;;;;;;;55.50;20.00;;;2.00;99.90;;;;;;12389145;28;20157;-85
2022/01/14 02:23:02;;;;;;;62.45;22.10;;;1.90;99.90;;;;;;12392789;28;20456;-86
2022/01/14 02:29:03;;;;;;;64.50;22.23;;;1.90;99.90;;;;;;12393316;28;20049;-86
2022/01/14 02:35:06;;;;;;;69.30;21.65;;;1.90;99.90;;;;;;12387156;28;20043;-85
2022/01/14 02:41:18;;;;;;;67.03;22.17;;;1.80;99.90;;;;;;12407489;28;20072;-85
2022/01/14 02:47:20;;;;;;;64.87;22.43;;;1.90;99.90;;;;;;12390077;28;20141;-85
2022/01/14 02:53:31;;;;;;;69.57;23.45;;;1.90;99.90;;;;;;12389812;28;20273;-84
2022/01/14 02:59:34;;;;;;;68.88;22.60;;;1.90;99.90;;;;;;12403427;28;20062;-84
2022/01/14 03:05:36;;;;;;;64.68;21.10;;;1.90;99.90;;;;;;12397308;28;20136;-85
2022/01/14 03:11:52;;;;;;;68.28;22.00;;;1.80;99.90;;;;;;12390056;28;20084;-85
2022/01/14 03:17:53;;;;;;;65.50;21.08;;;1.90;99.90;;;;;;12391884;28;20070;-86
2022/01/14 03:24:06;;;;;;;60.88;18.92;;;1.90;99.90;;;;;;12398448;28;20045;-85
2022/01/14 03:30:08;;;;;;;70.38;20.42;;;1.90;99.90;;;;;;12380545;28;21180;-85
2022/01/14 03:36:10;;;;;;;69.50;21.13;;;1.90;99.90;;;;;;12399387;28;20713;-85
2022/01/14 03:42:12;;;;;;;65.07;20.70;;;1.90;99.90;;;;;;12382429;28;20050;-84
2022/01/14 03:48:13;;;;;;;66.43;20.17;;;1.90;99.90;;;;;;12402297;28;20078;-85
2022/01/14 03:54:15;;;;;;;65.53;20.27;;;1.90;99.90;;;;;;12386528;28;20092;-86
2022/01/14 04:00:18;;;;;;;74.20;22.40;;;1.90;99.90;;;;;;12390369;28;20166;-85
2022/01/14 04:06:20;;;;;;;65.28;20.35;;;1.90;99.90;;;;;;12404073;28;20122;-86
2022/01/14 04:12:34;;;;;;;68.15;22.52;;;1.90;99.90;;;;;;12406904;28;20053;-84
2022/01/14 04:18:36;;;;;;;75.20;22.00;;;1.90;99.90;;;;;;12399715;28;20054;-85
2022/01/14 04:24:38;;;;;;;72.35;21.38;;;2.00;99.90;;;;;;12397676;28;20390;-85
2022/01/14 04:30:40;;;;;;;78.35;22.95;;;1.90;99.90;;;;;;12392450;28;20046;-84
2022/01/14 04:36:43;;;;;;;82.47;23.92;;;2.00;99.90;;;;;;12406273;28;20121;-85
2022/01/14 04:42:45;;;;;;;88.20;22.70;;;2.00;99.90;;;;;;12396399;28;20042;-85
2022/01/14 04:48:47;;;;;;;92.82;23.98;;;2.00;99.90;;;;;;12402456;28;20046;-86
2022/01/14 04:54:49;;;;;;;84.18;23.48;;;2.00;99.90;;;;;;12383415;28;20057;-85
2022/01/14 05:00:51;;;;;;;77.30;21.85;;;2.00;99.90;;;;;;12384903;28;20437;-85
2022/01/14 05:06:59;;;;;;;77.65;23.02;;;2.10;99.90;;;;;;12390383;28;20161;-85
2022/01/14 05:13:02;;;;;;;83.15;23.00;;;2.00;99.90;;;;;;12403096;28;20077;-85
2022/01/14 05:19:04;;;;;;;82.30;23.50;;;2.00;99.90;;;;;;12407914;28;20128;-85
2022/01/14 05:25:08;;;;;;;88.15;21.95;;;2.10;99.90;;;;;;12390559;28;20161;-85
2022/01/14 05:31:10;;;;;;;84.97;23.27;;;2.10;99.90;;;;;;12384909;28;20074;-85
2022/01/14 05:37:12;;;;;;;92.72;24.25;;;2.10;99.90;;;;;;12381917;28;20050;-85
2022/01/14 05:43:14;;;;;;;93.15;23.88;;;2.10;99.90;;;;;;12388320;28;20672;-86
2022/01/14 05:49:17;;;;;;;98.05;25.75;;;2.20;99.90;;;;;;12387727;28;20173;-84
2022/01/14 05:55:21;;;;;;;92.53;25.17;;;2.20;99.90;;;;;;12384076;28;20062;-85
2022/01/14 06:01:23;;;;;;;96.03;24.80;;;2.20;99.90;;;;;;12380740;28;20046;-85
2022/01/14 06:07:25;;;;;;;107.30;27.13;;;2.20;99.90;;;;;;12383870;28;20117;-85
2022/01/14 06:13:27;;;;;;;93.65;26.00;;;2.20;99.90;;;;;;12377504;28;20137;-85
2022/01/14 06:19:29;;;;;;;95.45;26.50;;;2.30;99.90;;;;;;12382980;28;20073;-85
2022/01/14 06:25:31;;;;;;;101.28;26.92;;;2.30;99.90;;;;;;12375232;28;20146;-84
2022/01/14 06:31:34;;;;;;;108.93;28.13;;;2.30;99.90;;;;;;12398376;28;20545;-85
2022/01/14 06:37:36;;;;;;;98.43;28.67;;;2.30;99.90;;;;;;12388275;28;20061;-85
2022/01/14 06:43:38;;;;;;;99.80;25.92;;;2.30;99.90;;;;;;12382671;28;20084;-85
2022/01/14 06:49:40;;;;;;;105.60;27.40;;;2.30;99.90;;;;;;12398895;28;20089;-85
2022/01/14 06:55:42;;;;;;;94.90;26.52;;;2.40;99.90;;;;;;12388024;28;20149;-85
2022/01/14 07:01:44;;;;;;;104.38;27.70;;;2.30;99.90;;;;;;12380112;28;20442;-85
2022/01/14 07:07:46;;;;;;;104.43;27.67;;;2.30;99.90;;;;;;12388119;28;20054;-84
2022/01/14 07:13:48;;;;;;;97.43;27.17;;;2.30;99.90;;;;;;12377384;28;20100;-85
2022/01/14 07:19:53;;;;;;;101.47;27.33;;;2.30;99.90;;;;;;12379347;28;20065;-85
2022/01/14 07:25:55;;;;;;;96.47;25.92;;;2.30;99.90;;;;;;12379521;28;20285;-85
2022/01/14 07:31:56;;;;;;;98.95;25.92;;;2.40;99.90;;;;;;12382103;28;20070;-86
2022/01/14 07:37:58;;;;;;;103.43;25.48;;;2.30;99.90;;;;;;12405989;28;20034;-85
2022/01/14 07:44:01;;;;;;;92.55;26.33;;;2.20;99.90;;;;;;12410001;28;20053;-86
2022/01/14 07:50:03;;;;;;;92.40;23.63;;;2.30;99.90;;;;;;12404935;28;20078;-86
2022/01/14 07:56:07;;;;;;;96.45;24.10;;;2.30;99.90;;;;;;12389074;28;20173;-85
2022/01/14 08:02:09;;;;;;;102.47;25.45;;;2.30;99.90;;;;;;12377036;28;20068;-85
2022/01/14 08:08:11;;;;;;;96.22;24.85;;;2.30;99.90;;;;;;12382328;28;20883;-86
2022/01/14 08:14:13;;;;;;;94.07;25.02;;;2.20;99.90;;;;;;12385580;28;20395;-85
2022/01/14 08:20:15;;;;;;;98.65;25.02;;;2.30;99.90;;;;;;12389468;28;20056;-86
2022/01/14 08:26:17;;;;;;;105.88;25.38;;;2.20;99.90;;;;;;12370218;28;20050;-84
2022/01/14 08:32:21;;;;;;;107.10;25.10;;;2.30;99.90;;;;;;12360911;28;20042;-85
2022/01/14 08:38:23;;;;;;;110.40;23.73;;;2.30;99.90;;;;;;12371671;28;20074;-85
2022/01/14 08:44:26;;;;;;;108.13;25.95;;;2.30;99.90;;;;;;12383377;28;20413;-86
2022/01/14 08:50:35;;;;;;;98.95;24.52;;;2.30;99.90;;;;;;12382271;28;20104;-86
2022/01/14 08:56:37;;;;;;;93.82;25.30;;;2.30;99.90;;;;;;12399766;28;20057;-85
2022/01/14 09:02:39;;;;;;;100.85;24.73;;;2.40;99.90;;;;;;12390454;28;20506;-84
2022/01/14 09:08:41;;;;;;;100.95;26.00;;;2.40;99.90;;;;;;12384464;28;20101;-85
2022/01/14 09:14:43;;;;;;;100.10;25.17;;;2.40;99.90;;;;;;12379367;28;20069;-85
2022/01/14 09:20:45;;;;;;;94.53;23.75;;;2.50;99.90;;;;;;12385684;28;20140;-85
2022/01/14 09:26:47;;;;;;;99.03;24.05;;;2.60;99.90;;;;;;12389950;28;21135;-86
2022/01/14 09:32:49;;;;;;;98.25;24.85;;;2.60;99.90;;;;;;12386621;28;20045;-86
2022/01/14 09:38:51;;;;;;;98.35;25.27;;;2.60;99.90;;;;;;12403989;28;20047;-85
2022/01/14 09:44:53;;;;;;;111.63;24.70;;;2.60;99.90;;;;;;12394839;28;20546;-85
2022/01/14 09:50:56;;;;;;;107.35;23.70;;;2.70;99.90;;;;;;12388272;28;20275;-85
2022/01/14 09:56:58;;;;;;;96.28;23.20;;;2.70;99.90;;;;;;12412353;28;20096;-85
2022/01/14 10:03:00;;;;;;;107.45;25.15;;;2.70;99.90;;;;;;12430064;28;20065;-86
2022/01/14 10:09:10;;;;;;;85.97;23.10;;;2.80;99.90;;;;;;12398740;28;20046;-85
2022/01/14 10:15:12;;;;;;;96.03;24.25;;;2.90;99.90;;;;;;12399176;28;20110;-86
2022/01/14 10:21:14;;;;;;;96.13;23.98;;;2.90;99.90;;;;;;12384698;28;20193;-87
2022/01/14 10:27:40;;;;;;;110.22;24.95;;;2.90;99.90;;;;;;12360068;28;20489;-86
2022/01/14 10:33:41;;;;;;;90.70;23.75;;;2.90;99.90;;;;;;12362677;28;20054;-86
2022/01/14 10:39:54;;;;;;;92.47;23.67;;;3.00;99.90;;;;;;12382172;28;20145;-86
2022/01/14 10:45:56;;;;;;;101.00;24.60;;;3.00;99.90;;;;;;12385158;28;20489;-87
2022/01/14 10:52:13;;;;;;;81.60;22.50;;;3.10;99.90;;;;;;12374723;28;20099;-86
2022/01/14 10:58:23;;;;;;;82.07;22.85;;;3.10;99.90;;;;;;12379149;28;20682;-86
2022/01/14 11:04:25;;;;;;;100.07;24.38;;;3.10;99.90;;;;;;12375062;28;20042;-85
2022/01/14 11:10:33;;;;;;;80.78;22.88;;;3.20;99.90;;;;;;12386437;28;20093;-86
2022/01/14 11:16:37;;;;;;;82.00;24.08;;;3.20;99.90;;;;;;12383776;28;20042;-86
2022/01/14 11:29:20;;;;;;;76.63;21.98;;;3.30;99.90;;;;;;12395154;28;20082;-85
2022/01/14 11:35:25;;;;;;;72.47;21.65;;;3.30;99.90;;;;;;12382408;28;20141;-85
2022/01/14 11:41:51;;;;;;;65.38;21.15;;;3.30;99.90;;;;;;12398088;28;20570;-85
2022/01/14 11:48:00;;;;;;;59.72;22.13;;;3.30;99.90;;;;;;12383085;28;20100;-85
2022/01/14 11:54:07;;;;;;;64.05;21.42;;;3.30;99.90;;;;;;12376586;28;20078;-85
2022/01/14 12:06:49;;;;;;;60.58;21.02;;;3.40;99.90;;;;;;12386840;28;20061;-86
2022/01/14 12:12:51;;;;;;;65.78;21.27;;;3.40;99.90;;;;;;12376804;28;20165;-87
2022/01/14 12:19:00;;;;;;;53.85;20.15;;;3.50;99.90;;;;;;12375498;28;20503;-86
2022/01/14 12:25:04;;;;;;;63.80;21.40;;;3.50;99.90;;;;;;12398759;28;20050;-85
2022/01/14 12:31:06;;;;;;;67.15;21.38;;;3.50;99.90;;;;;;12399988;28;20144;-85
2022/01/14 12:37:21;;;;;;;68.82;21.35;;;3.50;99.90;;;;;;12382895;28;20053;-86
2022/01/14 12:43:22;;;;;;;78.85;23.65;;;3.50;99.90;;;;;;12380080;28;20137;-86
2022/01/14 12:49:33;;;;;;;71.30;22.58;;;3.50;99.90;;;;;;12398491;28;20050;-86
2022/01/14 12:55:36;;;;;;;70.50;21.92;;;3.50;99.90;;;;;;12379725;28;20061;-85
2022/01/14 13:01:40;;;;;;;74.97;21.00;;;3.60;99.90;;;;;;12384418;28;20126;-85
2022/01/14 13:07:43;;;;;;;;;;;3.50;99.90;;;;;;12392000;28;20054;-85
2022/01/14 13:13:57;;;;;;;75.93;21.73;;;3.60;99.90;;;;;;12399222;28;20625;-86
2022/01/14 13:20:09;;;;;;;76.87;22.17;;;3.60;99.90;;;;;;12390367;28;20133;-85
2022/01/14 13:26:11;;;;;;;71.53;22.23;;;3.50;99.90;;;;;;12378964;28;20051;-86
2022/01/14 13:32:21;;;;;;;74.55;22.75;;;3.50;99.90;;;;;;12392184;28;20053;-85
2022/01/14 13:38:23;;;;;;;75.15;22.23;;;3.50;99.90;;;;;;12382001;28;20137;-86
2022/01/14 13:44:33;;;;;;;70.05;21.98;;;3.50;99.90;;;;;;12396648;28;20117;-86
2022/01/14 13:50:44;;;;;;;75.22;21.80;;;3.60;99.90;;;;;;12383389;28;20057;-85
2022/01/14 13:56:45;;;;;;;78.63;22.30;;;3.70;99.90;;;;;;12396657;28;20133;-86
2022/01/14 14:02:51;;;;;;;79.75;22.85;;;3.60;99.90;;;;;;12385966;28;20107;-86
2022/01/14 14:21:29;;;;;;;80.43;22.70;;;3.60;99.90;;;;;;12396255;28;20164;-85
2022/01/14 14:27:32;;;;;;;83.32;24.42;;;3.60;99.90;;;;;;12378170;28;20057;-86
2022/01/14 14:33:34;;;;;;;96.78;26.15;;;3.60;99.90;;;;;;12398708;28;20133;-86
2022/01/14 14:39:36;;;;;;;91.40;25.50;;;3.60;99.90;;;;;;12379390;28;20057;-86
2022/01/14 14:45:38;;;;;;;88.82;24.65;;;3.50;99.90;;;;;;12391044;28;20056;-86
2022/01/14 14:51:40;;;;;;;95.90;24.95;;;3.60;99.90;;;;;;12382033;28;20103;-86
2022/01/14 14:57:43;;;;;;;100.50;24.23;;;3.60;99.90;;;;;;12374484;28;20165;-85
2022/01/14 15:03:45;;;;;;;95.63;25.50;;;3.50;99.90;;;;;;12378890;28;20045;-85
2022/01/14 15:09:48;;;;;;;95.20;25.83;;;3.50;99.90;;;;;;12376237;28;20556;-85
2022/01/14 15:22:06;;;;;;;81.03;23.27;;;3.50;99.90;;;;;;12376816;28;20917;-86
2022/01/14 15:28:13;;;;;;;97.30;26.15;;;3.50;99.90;;;;;;12390911;28;20085;-85
2022/01/14 15:34:16;;;;;;;;;;;3.40;99.90;;;;;;12381657;28;20402;-85
2022/01/14 15:40:23;;;;;;;91.25;23.85;;;3.40;99.90;;;;;;12386185;28;19922;-86
2022/01/14 15:46:25;;;;;;;91.60;25.42;;;3.40;99.90;;;;;;12388050;28;20078;-86
2022/01/14 15:52:26;;;;;;;87.57;24.63;;;3.40;99.90;;;;;;12401955;28;20185;-85
2022/01/14 15:58:29;;;;;;;96.63;25.52;;;3.40;99.90;;;;;;12429732;28;20058;-85
2022/01/14 16:04:31;;;;;;;102.00;27.83;;;3.40;99.90;;;;;;12415720;28;20050;-86
2022/01/14 16:10:33;;;;;;;103.63;25.90;;;3.50;99.90;;;;;;12413007;28;20038;-85
2022/01/14 16:16:35;;;;;;;104.35;25.98;;;3.50;99.90;;;;;;12433360;28;20142;-85
2022/01/14 16:22:39;;;;;;;105.85;26.98;;;3.50;99.90;;;;;;12435056;28;20045;-85
2022/01/14 16:28:42;;;;;;;98.85;26.27;;;3.50;99.90;;;;;;12411990;28;20136;-85
2022/01/14 16:34:47;;;;;;;95.50;26.42;;;3.50;99.90;;;;;;12413960;28;20052;-85
2022/01/14 16:40:49;;;;;;;115.97;28.60;;;3.50;99.90;;;;;;12440590;28;20052;-85
2022/01/14 16:46:51;;;;;;;103.55;25.58;;;3.60;99.90;;;;;;12423590;28;20141;-85
2022/01/14 16:52:53;;;;;;;97.78;26.85;;;3.50;99.90;;;;;;12426739;28;20200;-86
2022/01/14 16:58:55;;;;;;;125.07;28.20;;;3.60;99.90;;;;;;12406473;28;20134;-85
2022/01/14 17:04:57;;;;;;;109.35;27.00;;;3.60;99.90;;;;;;12375737;28;20053;-85
2022/01/14 17:10:59;;;;;;;124.68;29.45;;;3.60;99.90;;;;;;12392751;28;20077;-86
2022/01/14 17:17:02;;;;;;;125.90;28.45;;;3.60;99.90;;;;;;12391781;28;20042;-84
2022/01/14 17:23:04;;;;;;;111.38;27.50;;;3.60;99.90;;;;;;12395159;28;20112;-86
2022/01/14 17:29:06;;;;;;;128.85;29.77;;;3.60;99.90;;;;;;12401616;28;20154;-86
2022/01/14 17:35:08;;;;;;;107.32;29.60;;;3.60;99.90;;;;;;12391669;28;20057;-86
2022/01/14 17:41:12;;;;;;;122.50;30.40;;;3.60;99.90;;;;;;12389141;28;20052;-85
2022/01/14 17:47:14;;;;;;;109.18;30.10;;;3.60;99.90;;;;;;12382787;28;20050;-86
2022/01/14 17:53:18;;;;;;;112.97;30.90;;;3.60;99.90;;;;;;12390844;28;20085;-85
2022/01/14 17:59:21;;;;;;;108.30;28.70;;;3.60;99.90;;;;;;12392935;28;20050;-86
2022/01/14 18:05:23;;;;;;;114.22;29.08;;;3.60;99.90;;;;;;12384419;28;20439;-86
2022/01/14 18:11:31;;;;;;;103.72;28.75;;;3.60;99.90;;;;;;12402029;28;20054;-86
2022/01/14 18:17:34;;;;;;;108.32;29.50;;;3.60;99.90;;;;;;12386266;28;20050;-85
2022/01/14 18:23:36;;;;;;;106.32;28.92;;;3.60;99.90;;;;;;12387299;28;20472;-86
2022/01/14 18:29:38;;;;;;;97.78;27.77;;;3.60;99.90;;;;;;12382092;28;20058;-86
2022/01/14 18:35:42;;;;;;;105.40;27.70;;;3.60;99.90;;;;;;12377505;28;20042;-86
2022/01/14 18:41:44;;;;;;;102.38;28.00;;;3.70;99.90;;;;;;12373888;28;20045;-85
2022/01/14 18:47:46;;;;;;;111.32;29.60;;;3.70;99.90;;;;;;12364763;28;20050;-85
2022/01/14 18:53:50;;;;;;;102.97;27.27;;;3.70;99.90;;;;;;12411876;28;20053;-86
2022/01/14 18:59:52;;;;;;;100.28;28.35;;;3.70;99.90;;;;;;12403991;28;20097;-86
2022/01/14 19:05:54;;;;;;;100.95;28.90;;;3.70;99.90;;;;;;12391618;28;21336;-86
2022/01/14 19:11:58;;;;;;;86.43;26.45;;;3.60;99.90;;;;;;12386480;28;20455;-85
2022/01/14 19:18:01;;;;;;;86.05;25.85;;;3.60;99.90;;;;;;12391484;28;20138;-86
2022/01/14 19:24:05;;;;;;;89.17;27.17;;;3.60;99.90;;;;;;12386036;28;20173;-85
2022/01/14 19:30:08;;;;;;;88.35;26.55;;;3.60;99.90;;;;;;12393466;28;20045;-86
2022/01/14 19:36:09;;;;;;;97.82;27.15;;;3.70;99.90;;;;;;12390949;28;20141;-86
2022/01/14 19:42:12;;;;;;;95.07;27.33;;;3.60;99.90;;;;;;12393239;28;20038;-86
2022/01/14 19:48:14;;;;;;;85.28;26.77;;;3.70;99.90;;;;;;12396671;28;20512;-86
2022/01/14 19:54:17;;;;;;;90.85;27.45;;;3.70;99.90;;;;;;12396022;28;20076;-85
2022/01/14 20:00:20;;;;;;;90.32;26.42;;;3.70;99.90;;;;;;12407474;28;20569;-85
2022/01/14 20:06:22;;;;;;;80.40;25.73;;;3.70;99.90;;;;;;12396792;28;20132;-85
2022/01/14 20:12:24;;;;;;;87.00;25.95;;;3.70;99.90;;;;;;12395950;28;21545;-85
2022/01/14 20:18:26;;;;;;;81.65;24.83;;;3.70;99.90;;;;;;12398298;28;20110;-86
2022/01/14 20:24:30;;;;;;;83.97;26.00;;;3.70;99.90;;;;;;12402374;28;20462;-86
2022/01/14 20:30:31;;;;;;;82.85;25.92;;;3.70;99.90;;;;;;12394038;28;20091;-86
2022/01/14 20:36:33;;;;;;;99.32;26.90;;;3.70;99.90;;;;;;12400711;28;20092;-85
2022/01/14 20:42:42;;;;;;;80.32;23.83;;;3.70;99.90;;;;;;12385495;28;20073;-85
2022/01/14 20:48:44;;;;;;;70.55;22.95;;;3.70;99.90;;;;;;12388775;28;20077;-86
2022/01/14 20:54:47;;;;;;;78.40;23.80;;;3.70;99.90;;;;;;12384726;28;20406;-85
2022/01/14 21:00:49;;;;;;;78.68;25.00;;;3.80;99.90;;;;;;12384881;28;20574;-85
2022/01/14 21:06:52;;;;;;;81.15;24.75;;;3.70;99.90;;;;;;12383845;28;20053;-85
2022/01/14 21:12:54;;;;;;;93.15;24.92;;;3.80;99.90;;;;;;12391119;28;20058;-87
2022/01/14 21:18:56;;;;;;;92.20;25.77;;;3.80;99.90;;;;;;12399754;28;20050;-86
2022/01/14 21:24:58;;;;;;;71.40;23.65;;;3.80;99.90;;;;;;12388194;28;20077;-86
2022/01/14 21:31:00;;;;;;;69.80;22.85;;;3.80;99.90;;;;;;12388671;28;20145;-86
2022/01/14 21:37:02;;;;;;;68.85;23.10;;;3.90;99.90;;;;;;12386956;28;20046;-87
2022/01/14 21:43:07;;;;;;;72.05;22.88;;;3.90;99.90;;;;;;12387743;28;20549;-86
2022/01/14 21:49:10;;;;;;;74.93;23.48;;;3.90;99.90;;;;;;12395393;28;20494;-86
2022/01/14 21:55:16;;;;;;;73.75;24.02;;;3.90;99.90;;;;;;12380748;28;20056;-87
2022/01/14 22:01:18;;;;;;;77.25;23.85;;;4.00;99.90;;;;;;12400879;28;20038;-86
2022/01/14 22:07:20;;;;;;;74.13;23.42;;;3.90;99.90;;;;;;12386156;28;20518;-87
2022/01/14 22:13:35;;;;;;;75.47;23.23;;;3.90;99.90;;;;;;12392417;28;20061;-86
2022/01/14 22:19:38;;;;;;;69.05;23.52;;;3.90;99.90;;;;;;12414300;28;20098;-86
2022/01/14 22:25:40;;;;;;;73.32;23.58;;;3.90;99.90;;;;;;12381143;28;20053;-86
2022/01/14 22:31:42;;;;;;;69.28;22.83;;;3.90;99.90;;;;;;12387520;28;20157;-87
2022/01/14 22:37:44;;;;;;;73.25;23.45;;;3.90;99.90;;;;;;12387012;28;20042;-87
2022/01/14 22:43:46;;;;;;;72.75;23.10;;;3.90;99.90;;;;;;12395055;28;20045;-86
2022/01/14 22:49:48;;;;;;;66.63;23.05;;;3.90;99.90;;;;;;12387748;28;20074;-87
2022/01/14 22:55:52;;;;;;;69.20;22.33;;;3.90;99.90;;;;;;12400656;28;20613;-86
2022/01/14 23:01:54;;;;;;;64.80;22.80;;;3.90;99.90;;;;;;12382684;28;20153;-86
2022/01/14 23:07:56;;;;;;;60.10;20.92;;;3.90;99.90;;;;;;12398393;28;20049;-86
2022/01/14 23:13:58;;;;;;;62.65;21.60;;;3.90;99.90;;;;;;12441941;28;20046;-87
2022/01/14 23:20:00;;;;;;;62.95;21.27;;;3.90;99.90;;;;;;12402345;28;20402;-86
2022/01/14 23:26:02;;;;;;;61.70;22.42;;;3.90;99.90;;;;;;12394664;28;20054;-87
2022/01/14 23:32:05;;;;;;;60.53;20.00;;;3.90;99.90;;;;;;12396210;28;20133;-86
2022/01/14 23:38:07;;;;;;;53.25;19.73;;;3.90;99.90;;;;;;12396117;28;20050;-86
2022/01/14 23:44:15;;;;;;;54.03;19.92;;;4.00;99.90;;;;;;12405404;28;20061;-87
2022/01/14 23:50:24;;;;;;;55.38;20.63;;;4.00;99.90;;;;;;12415210;28;20051;-87
2022/01/14 23:56:26;;;;;;;53.13;20.38;;;3.90;99.90;;;;;;12385819;28;20545;-87
